Time;durP1;ratioP1;P1;durP2;ratioP2;P2;SDS_P1;SDS_P2;PMS_P1;PMS_P2;Temp;Humidity;BMP_temperature;BMP_pressure;BME280_temperature;BME280_humidity;BME280_pressure;Samples;Min_cycle;Max_cycle;Signal;HPM_P1;HPM_P2
2022/09/29 00:00:37;;;;;;;7.05;3.40;;;10.70;99.90;;;;;;5028572;28;20041;-70
2022/09/29 00:03:03;;;;;;;9.23;4.50;;;10.70;99.90;;;;;;5013231;28;20096;-70
2022/09/29 00:05:29;;;;;;;6.15;4.00;;;10.70;99.90;;;;;;5013229;28;20045;-70
2022/09/29 00:07:55;;;;;;;6.35;3.80;;;10.70;99.90;;;;;;5013170;28;20025;-70
2022/09/29 00:10:21;;;;;;;5.57;3.75;;;10.50;99.90;;;;;;5013483;28;20045;-71
2022/09/29 00:12:46;;;;;;;6.18;3.67;;;10.50;99.90;;;;;;5013003;28;20045;-69
2022/09/29 00:15:12;;;;;;;6.13;4.15;;;10.50;99.90;;;;;;5012525;28;20188;-69
2022/09/29 00:17:38;;;;;;;6.03;3.70;;;10.50;99.90;;;;;;5012908;28;20025;-70
2022/09/29 00:20:04;;;;;;;5.78;3.65;;;10.50;99.90;;;;;;5028052;28;20165;-71
2022/09/29 00:22:30;;;;;;;8.13;3.63;;;10.40;99.90;;;;;;5012936;28;20029;-70
2022/09/29 00:24:56;;;;;;;7.15;4.13;;;10.40;99.90;;;;;;5027998;28;20026;-71
2022/09/29 00:27:21;;;;;;;10.20;3.97;;;10.40;99.90;;;;;;5012545;28;20038;-69
2022/09/29 00:29:47;;;;;;;5.32;3.33;;;10.40;99.90;;;;;;5011553;28;20109;-69
2022/09/29 00:32:13;;;;;;;7.00;4.00;;;10.30;99.90;;;;;;5012509;28;20112;-71
2022/09/29 00:34:39;;;;;;;5.65;3.53;;;10.30;99.90;;;;;;5011875;28;20034;-69
2022/09/29 00:37:04;;;;;;;10.13;4.03;;;10.30;99.90;;;;;;5012461;28;20029;-69
2022/09/29 00:39:30;;;;;;;8.55;3.60;;;10.30;99.90;;;;;;5012325;28;20091;-70
2022/09/29 00:41:59;;;;;;;6.43;3.67;;;10.20;99.90;;;;;;5012401;28;20038;-69
2022/09/29 00:45:02;;;;;;;8.02;4.47;;;10.20;99.90;;;;;;5012588;28;20026;-71
2022/09/29 00:47:30;;;;;;;8.10;3.47;;;10.10;99.90;;;;;;5012367;28;20018;-71
2022/09/29 00:50:11;;;;;;;6.18;3.80;;;10.10;99.90;;;;;;5012396;28;20026;-69
2022/09/29 00:52:42;;;;;;;8.32;4.00;;;10.10;99.90;;;;;;5013267;28;20030;-69
2022/09/29 00:55:38;;;;;;;6.90;3.83;;;10.10;99.90;;;;;;5012366;28;20104;-71
2022/09/29 00:58:15;;;;;;;6.63;3.60;;;10.10;99.90;;;;;;5011498;28;20516;-71
2022/09/29 01:00:42;;;;;;;7.47;3.78;;;10.00;99.90;;;;;;5012013;28;20034;-71
2022/09/29 01:03:12;;;;;;;8.03;3.70;;;10.00;99.90;;;;;;5011968;28;20037;-71
2022/09/29 01:05:53;;;;;;;9.80;3.92;;;9.90;99.90;;;;;;5010975;28;20026;-71
2022/09/29 01:08:41;;;;;;;7.75;4.10;;;9.90;99.90;;;;;;5011888;28;20109;-71
2022/09/29 01:11:10;;;;;;;5.28;3.58;;;9.90;99.90;;;;;;5011729;28;20411;-71
2022/09/29 01:13:37;;;;;;;7.20;3.80;;;9.80;99.90;;;;;;5012039;28;20368;-71
2022/09/29 01:16:03;;;;;;;11.27;4.63;;;9.80;99.90;;;;;;5011665;28;20087;-71
2022/09/29 01:18:30;;;;;;;6.55;4.10;;;9.80;99.90;;;;;;5011929;28;20030;-71
2022/09/29 01:21:31;;;;;;;5.80;3.50;;;9.80;99.90;;;;;;5011558;28;20492;-71
2022/09/29 01:24:19;;;;;;;5.35;3.30;;;9.70;99.90;;;;;;5010594;28;20175;-71
2022/09/29 01:26:47;;;;;;;12.95;3.45;;;9.80;99.90;;;;;;5011680;28;20091;-70
2022/09/29 01:29:18;;;;;;;6.07;3.92;;;9.80;99.90;;;;;;5011816;28;20097;-71
2022/09/29 01:32:03;;;;;;;9.05;3.97;;;9.80;99.90;;;;;;5010390;28;20037;-70
2022/09/29 01:34:56;;;;;;;7.55;4.13;;;9.80;99.90;;;;;;5011747;28;20477;-70
2022/09/29 01:37:53;;;;;;;6.07;3.78;;;9.70;99.90;;;;;;5031410;28;20321;-70
2022/09/29 01:40:33;;;;;;;6.85;4.05;;;9.70;99.90;;;;;;5031180;28;20037;-70
2022/09/29 01:43:14;;;;;;;7.57;4.05;;;9.70;99.90;;;;;;5031021;28;20407;-70
2022/09/29 01:46:23;;;;;;;6.97;4.07;;;9.60;99.90;;;;;;5030688;28;20422;-70
2022/09/29 01:48:53;;;;;;;6.28;3.55;;;9.70;99.90;;;;;;5045809;28;20041;-70
2022/09/29 01:51:58;;;;;;;9.65;3.55;;;9.70;99.90;;;;;;5031050;28;20463;-70
2022/09/29 01:54:45;;;;;;;7.22;3.78;;;9.60;99.90;;;;;;5008874;28;20385;-70
2022/09/29 01:57:25;;;;;;;5.78;4.05;;;9.60;99.90;;;;;;5029623;28;20042;-70
2022/09/29 02:00:01;;;;;;;7.50;4.18;;;9.60;99.90;;;;;;5030643;28;20456;-70
2022/09/29 02:02:39;;;;;;;4.25;3.33;;;9.60;99.90;;;;;;5030893;28;20063;-70
2022/09/29 02:05:13;;;;;;;6.80;4.00;;;9.50;99.90;;;;;;5031317;28;20037;-70
2022/09/29 02:07:43;;;;;;;8.07;3.92;;;9.50;99.90;;;;;;5031215;28;20036;-70
2022/09/29 02:10:33;;;;;;;7.53;4.43;;;9.50;99.90;;;;;;5030830;28;20068;-70
2022/09/29 02:13:01;;;;;;;4.88;3.65;;;9.50;99.90;;;;;;5030829;28;20026;-72
2022/09/29 02:15:31;;;;;;;6.75;4.28;;;9.50;99.90;;;;;;5046009;28;20045;-71
2022/09/29 02:18:05;;;;;;;7.75;4.30;;;9.50;99.90;;;;;;5030393;28;20098;-71
2022/09/29 02:20:30;;;;;;;8.82;4.22;;;9.40;99.90;;;;;;5030624;28;20030;-71
2022/09/29 02:22:56;;;;;;;10.98;4.25;;;9.40;99.90;;;;;;5030645;28;20324;-70
2022/09/29 02:25:23;;;;;;;6.00;4.30;;;9.40;99.90;;;;;;5031252;28;20041;-71
2022/09/29 02:27:49;;;;;;;8.93;4.85;;;9.30;99.90;;;;;;5030626;28;20352;-71
2022/09/29 02:30:16;;;;;;;7.28;4.35;;;9.40;99.90;;;;;;5030806;28;20034;-71
2022/09/29 02:32:42;;;;;;;8.27;4.97;;;9.40;99.90;;;;;;5030490;28;20033;-71
2022/09/29 02:35:11;;;;;;;8.32;4.53;;;9.40;99.90;;;;;;5046104;28;20036;-71
2022/09/29 02:37:53;;;;;;;7.45;4.82;;;9.30;99.90;;;;;;5030859;28;20108;-71
2022/09/29 02:40:50;;;;;;;9.18;5.10;;;9.30;99.90;;;;;;5010823;28;20595;-71
2022/09/29 02:43:46;;;;;;;9.82;5.97;;;9.30;99.90;;;;;;5010809;28;20364;-70
2022/09/29 02:46:37;;;;;;;10.77;4.80;;;9.30;99.90;;;;;;5030675;28;20049;-71
2022/09/29 02:49:26;;;;;;;9.23;5.28;;;9.30;99.90;;;;;;5030433;28;20535;-70
2022/09/29 02:51:57;;;;;;;10.05;6.20;;;9.20;99.90;;;;;;5030327;28;20041;-70
2022/09/29 02:54:38;;;;;;;8.82;5.93;;;9.20;99.90;;;;;;5045719;28;20495;-70
2022/09/29 02:57:07;;;;;;;13.43;6.63;;;9.20;99.90;;;;;;5030243;28;20518;-71
2022/09/29 02:59:42;;;;;;;27.73;6.78;;;9.20;99.90;;;;;;5030376;28;20037;-71
2022/09/29 03:02:08;;;;;;;9.98;6.63;;;9.10;99.90;;;;;;5029328;28;20180;-70
2022/09/29 03:04:33;;;;;;;9.88;6.05;;;9.10;99.90;;;;;;5046105;28;20029;-71
2022/09/29 03:06:59;;;;;;;9.85;6.03;;;9.00;99.90;;;;;;5030469;28;20029;-71
2022/09/29 03:09:24;;;;;;;13.77;6.60;;;9.10;99.90;;;;;;5030044;28;20041;-71
2022/09/29 03:11:50;;;;;;;10.30;6.18;;;9.10;99.90;;;;;;5030289;28;20025;-71
2022/09/29 03:14:16;;;;;;;13.82;6.57;;;9.10;99.90;;;;;;5029922;28;20132;-71
2022/09/29 03:16:42;;;;;;;9.10;6.18;;;9.00;99.90;;;;;;5030497;28;20025;-71
2022/09/29 03:19:08;;;;;;;9.00;6.05;;;9.10;99.90;;;;;;5030007;28;20423;-71
2022/09/29 03:21:34;;;;;;;8.93;6.15;;;9.00;99.90;;;;;;5029944;28;20053;-71
2022/09/29 03:24:00;;;;;;;12.70;6.15;;;9.00;99.90;;;;;;5029881;28;20501;-71
2022/09/29 03:26:26;;;;;;;9.85;5.72;;;9.00;99.90;;;;;;5029947;28;20033;-71
2022/09/29 03:28:52;;;;;;;10.32;6.13;;;9.00;99.90;;;;;;5030284;28;20053;-71
2022/09/29 03:31:18;;;;;;;13.57;6.97;;;8.90;99.90;;;;;;5034279;28;20040;-71
2022/09/29 03:33:44;;;;;;;14.82;7.43;;;9.00;99.90;;;;;;5033434;28;20038;-70
2022/09/29 03:36:10;;;;;;;12.15;7.50;;;8.90;99.90;;;;;;5033480;28;20532;-71
2022/09/29 03:38:37;;;;;;;13.55;6.00;;;8.90;99.90;;;;;;5033429;28;20451;-71
2022/09/29 03:41:03;;;;;;;12.27;6.25;;;8.90;99.90;;;;;;5033229;28;20057;-71
2022/09/29 03:43:29;;;;;;;10.68;6.63;;;8.90;99.90;;;;;;5033794;28;20028;-71
2022/09/29 03:45:55;;;;;;;9.30;6.20;;;8.90;99.90;;;;;;5033325;28;20105;-71
2022/09/29 03:48:22;;;;;;;13.35;7.35;;;8.80;99.90;;;;;;5033317;28;20033;-71
2022/09/29 03:50:49;;;;;;;12.93;7.30;;;8.80;99.90;;;;;;5033465;28;20055;-72
2022/09/29 03:53:15;;;;;;;13.73;7.93;;;8.80;99.90;;;;;;5033324;28;20040;-71
2022/09/29 03:55:49;;;;;;;13.43;8.15;;;8.80;99.90;;;;;;5048921;28;20263;-72
2022/09/29 03:58:15;;;;;;;16.10;8.30;;;8.80;99.90;;;;;;5033235;28;20033;-72
2022/09/29 04:00:41;;;;;;;15.20;7.88;;;8.80;99.90;;;;;;5016958;28;20037;-71
2022/09/29 04:03:07;;;;;;;15.48;8.85;;;8.80;99.90;;;;;;5045077;28;20034;-71
2022/09/29 04:05:37;;;;;;;18.17;9.73;;;8.80;99.90;;;;;;5013138;28;20033;-71
2022/09/29 04:08:03;;;;;;;22.08;10.27;;;8.80;99.90;;;;;;5045324;28;20091;-71
2022/09/29 04:10:29;;;;;;;18.70;11.02;;;8.80;99.90;;;;;;5013619;28;20044;-71
2022/09/29 04:12:55;;;;;;;17.48;10.27;;;8.80;99.90;;;;;;5012071;28;20038;-70
2022/09/29 04:15:20;;;;;;;20.92;10.93;;;8.80;99.90;;;;;;5012990;28;20535;-71
2022/09/29 04:17:46;;;;;;;18.90;10.18;;;8.80;99.90;;;;;;5013133;28;20317;-72
2022/09/29 04:20:12;;;;;;;19.40;11.65;;;8.90;99.90;;;;;;5013049;28;20061;-71
2022/09/29 04:22:37;;;;;;;21.75;11.00;;;8.90;99.90;;;;;;5013284;28;20108;-71
2022/09/29 04:25:03;;;;;;;20.88;11.23;;;8.90;99.90;;;;;;5012761;28;20038;-70
2022/09/29 04:27:29;;;;;;;19.63;10.50;;;9.00;99.90;;;;;;5011487;28;20096;-70
2022/09/29 04:29:55;;;;;;;20.80;10.85;;;9.00;99.90;;;;;;5012547;28;20257;-71
2022/09/29 04:32:20;;;;;;;17.08;9.95;;;9.00;99.90;;;;;;5012436;28;20029;-71
2022/09/29 04:34:47;;;;;;;19.60;10.80;;;9.00;99.90;;;;;;5012500;28;20024;-71
2022/09/29 04:37:13;;;;;;;18.05;10.98;;;9.10;99.90;;;;;;5013277;28;20026;-71
2022/09/29 04:39:39;;;;;;;25.63;11.15;;;9.00;99.90;;;;;;5012542;28;20482;-72
2022/09/29 04:42:05;;;;;;;21.52;11.23;;;9.10;99.90;;;;;;5011545;28;20113;-71
2022/09/29 04:44:30;;;;;;;18.75;11.00;;;9.00;99.90;;;;;;5012326;28;20403;-71
2022/09/29 04:46:56;;;;;;;21.25;10.93;;;9.10;99.90;;;;;;5012316;28;20101;-71
2022/09/29 04:49:21;;;;;;;23.00;11.38;;;9.10;99.90;;;;;;5012809;28;20104;-71
2022/09/29 04:51:47;;;;;;;19.25;10.77;;;9.10;99.90;;;;;;5012480;28;20342;-71
2022/09/29 04:54:13;;;;;;;21.25;11.63;;;9.10;99.90;;;;;;5012331;28;20100;-71
2022/09/29 04:56:39;;;;;;;19.80;10.70;;;9.10;99.90;;;;;;5011181;28;20034;-70
2022/09/29 04:59:05;;;;;;;22.90;10.40;;;9.00;99.90;;;;;;5012318;28;20028;-70
2022/09/29 05:01:31;;;;;;;21.95;10.52;;;9.10;99.90;;;;;;5027848;28;20116;-71
2022/09/29 05:03:56;;;;;;;19.70;11.45;;;9.10;99.90;;;;;;5011997;28;20041;-71
2022/09/29 05:06:22;;;;;;;27.90;11.20;;;9.10;99.90;;;;;;5012097;28;20478;-71
2022/09/29 05:08:48;;;;;;;19.98;11.55;;;9.00;99.90;;;;;;5012399;28;20415;-71
2022/09/29 05:11:13;;;;;;;22.08;11.65;;;9.00;99.90;;;;;;5012158;28;20375;-71
2022/09/29 05:13:40;;;;;;;26.95;12.95;;;9.00;99.90;;;;;;5012171;28;20073;-70
2022/09/29 05:16:06;;;;;;;21.42;11.63;;;9.10;99.90;;;;;;5011862;28;20026;-71
2022/09/29 05:18:32;;;;;;;24.13;11.48;;;9.00;99.90;;;;;;5012088;28;20041;-71
2022/09/29 05:21:08;;;;;;;19.88;11.88;;;9.00;99.90;;;;;;5012055;28;20034;-71
2022/09/29 05:23:34;;;;;;;20.35;11.98;;;9.00;99.90;;;;;;5012189;28;20064;-70
2022/09/29 05:26:05;;;;;;;20.95;12.30;;;9.00;99.90;;;;;;5011749;28;20138;-71
2022/09/29 05:28:31;;;;;;;27.98;11.60;;;9.00;99.90;;;;;;5012848;28;20026;-71
2022/09/29 05:31:05;;;;;;;27.85;14.23;;;9.00;99.90;;;;;;5010810;28;20041;-72
2022/09/29 05:33:32;;;;;;;28.90;14.02;;;9.10;99.90;;;;;;5043782;28;20423;-70
2022/09/29 05:35:58;;;;;;;21.80;12.98;;;9.10;99.90;;;;;;5011405;28;20038;-71
2022/09/29 05:38:24;;;;;;;30.08;12.95;;;9.10;99.90;;;;;;5011311;28;20116;-70
2022/09/29 05:40:51;;;;;;;22.42;12.45;;;9.10;99.90;;;;;;5043330;28;20359;-71
2022/09/29 05:43:17;;;;;;;30.63;13.55;;;9.00;99.90;;;;;;5011671;28;20022;-71
2022/09/29 05:45:43;;;;;;;25.17;12.73;;;9.10;99.90;;;;;;5011178;28;20483;-71
2022/09/29 05:48:09;;;;;;;27.92;13.50;;;9.10;99.90;;;;;;5011209;28;20049;-71
2022/09/29 05:50:40;;;;;;;30.30;15.15;;;9.10;99.90;;;;;;5011384;28;20025;-71
2022/09/29 05:53:09;;;;;;;24.48;12.93;;;9.10;99.90;;;;;;5010582;28;20041;-71
2022/09/29 05:55:38;;;;;;;22.83;12.93;;;9.10;99.90;;;;;;5011634;28;20026;-71
2022/09/29 05:58:05;;;;;;;25.63;13.38;;;9.10;99.90;;;;;;5010996;28;20030;-71
2022/09/29 06:00:31;;;;;;;27.30;14.65;;;9.10;99.90;;;;;;5010878;28;20054;-71
2022/09/29 06:02:59;;;;;;;36.92;17.45;;;9.10;99.90;;;;;;5010910;28;20298;-70
2022/09/29 06:05:25;;;;;;;25.42;14.07;;;9.10;99.90;;;;;;5026181;28;20026;-71
2022/09/29 06:07:51;;;;;;;27.95;15.23;;;9.10;99.90;;;;;;5019035;28;20021;-72
2022/09/29 06:10:17;;;;;;;28.75;13.93;;;9.10;99.90;;;;;;5030740;28;20457;-73
2022/09/29 06:12:43;;;;;;;26.30;13.90;;;9.10;99.90;;;;;;5030925;28;20047;-72
2022/09/29 06:15:10;;;;;;;26.83;14.18;;;9.10;99.90;;;;;;5029342;28;20368;-72
2022/09/29 06:17:36;;;;;;;32.10;14.90;;;9.20;99.90;;;;;;5063162;28;20041;-71
2022/09/29 06:20:03;;;;;;;30.85;15.13;;;9.20;99.90;;;;;;5030548;28;20025;-71
2022/09/29 06:22:29;;;;;;;31.52;15.07;;;9.20;99.90;;;;;;5029799;28;20033;-72
2022/09/29 06:24:55;;;;;;;30.23;16.33;;;9.20;99.90;;;;;;5030647;28;20060;-72
2022/09/29 06:27:21;;;;;;;28.63;16.27;;;9.20;99.90;;;;;;5030747;28;20030;-72
2022/09/29 06:29:46;;;;;;;28.77;15.80;;;9.20;99.90;;;;;;5030408;28;20087;-73
2022/09/29 06:32:12;;;;;;;28.52;14.93;;;9.30;99.90;;;;;;5029291;28;20029;-71
2022/09/29 06:37:33;;;;;;;30.83;15.65;;;9.40;99.90;;;;;;5030880;28;20139;-72
2022/09/29 06:37:38;;;;;;;30.30;15.40;;;9.40;99.90;;;;;;5030245;28;20042;-71
2022/09/29 06:40:07;;;;;;;27.48;15.93;;;9.40;99.90;;;;;;5030175;28;20052;-72
2022/09/29 06:42:33;;;;;;;27.95;14.95;;;9.40;99.90;;;;;;5030362;28;20103;-72
2022/09/29 06:44:59;;;;;;;33.53;16.10;;;9.50;99.90;;;;;;5030354;28;20030;-73
2022/09/29 06:47:24;;;;;;;27.95;16.02;;;9.50;99.90;;;;;;5030148;28;20095;-71
2022/09/29 06:49:50;;;;;;;28.85;16.42;;;9.60;99.90;;;;;;5030489;28;20121;-72
2022/09/29 06:52:17;;;;;;;30.40;15.80;;;9.60;99.90;;;;;;5031036;28;20422;-71
2022/09/29 06:54:43;;;;;;;31.88;16.10;;;9.60;99.90;;;;;;5030232;28;20434;-71
2022/09/29 06:57:09;;;;;;;28.30;15.55;;;9.70;99.90;;;;;;5030182;28;20115;-71
2022/09/29 06:59:35;;;;;;;29.63;15.38;;;9.80;99.90;;;;;;5030106;28;20111;-71
2022/09/29 07:02:01;;;;;;;33.67;17.25;;;9.80;99.90;;;;;;5030185;28;20024;-73
2022/09/29 07:04:28;;;;;;;30.20;16.77;;;9.80;99.90;;;;;;5032265;28;20026;-73
2022/09/29 07:06:53;;;;;;;29.33;16.73;;;9.90;99.90;;;;;;5033971;28;20411;-73
2022/09/29 07:09:19;;;;;;;31.27;16.67;;;9.90;99.90;;;;;;5034024;28;20072;-71
2022/09/29 07:11:48;;;;;;;28.85;16.10;;;9.90;99.90;;;;;;5034033;28;20025;-71
2022/09/29 07:14:14;;;;;;;28.73;16.65;;;10.00;99.90;;;;;;5033397;28;20057;-71
2022/09/29 07:16:40;;;;;;;31.58;16.30;;;10.10;99.90;;;;;;5034107;28;20025;-70
2022/09/29 07:19:06;;;;;;;32.92;16.77;;;10.10;99.90;;;;;;5033700;28;20502;-72
2022/09/29 07:21:32;;;;;;;28.60;16.27;;;10.20;99.90;;;;;;5033790;28;20069;-72
2022/09/29 07:23:57;;;;;;;31.50;16.65;;;10.20;99.90;;;;;;5033521;28;20040;-71
2022/09/29 07:26:23;;;;;;;30.42;15.85;;;10.30;99.90;;;;;;5033559;28;20033;-71
2022/09/29 07:28:49;;;;;;;30.80;17.13;;;10.30;99.90;;;;;;5065761;28;20040;-71
2022/09/29 07:31:17;;;;;;;31.08;16.25;;;10.40;99.90;;;;;;5034106;28;20017;-71
2022/09/29 07:33:44;;;;;;;32.17;17.83;;;10.40;99.90;;;;;;5033378;28;20487;-72
2022/09/29 07:36:10;;;;;;;31.83;17.20;;;10.50;99.90;;;;;;5065675;28;20594;-71
2022/09/29 07:38:36;;;;;;;35.55;17.25;;;10.60;99.90;;;;;;5033363;28;20387;-71
2022/09/29 07:41:10;;;;;;;30.02;16.27;;;10.60;99.90;;;;;;5032904;28;20025;-72
2022/09/29 07:43:36;;;;;;;28.38;16.15;;;10.70;99.90;;;;;;5033702;28;20021;-71
2022/09/29 07:46:03;;;;;;;30.73;16.52;;;10.70;99.90;;;;;;5033089;28;20036;-73
2022/09/29 07:48:29;;;;;;;38.20;17.30;;;10.90;99.90;;;;;;5065361;28;20036;-72
2022/09/29 07:51:05;;;;;;;28.17;15.93;;;11.00;99.90;;;;;;5033133;28;20040;-72
2022/09/29 07:53:31;;;;;;;28.23;15.80;;;11.10;99.90;;;;;;5033206;28;20036;-72
2022/09/29 07:56:05;;;;;;;31.10;16.73;;;11.30;99.90;;;;;;5031990;28;20403;-71
2022/09/29 07:58:32;;;;;;;30.23;16.70;;;11.40;99.90;;;;;;5033677;28;20025;-71
2022/09/29 08:00:58;;;;;;;29.77;15.77;;;11.60;99.90;;;;;;5033095;28;20033;-71
2022/09/29 08:03:25;;;;;;;29.80;17.13;;;11.80;99.90;;;;;;5033127;28;20321;-71
2022/09/29 08:05:52;;;;;;;27.77;16.63;;;11.90;99.90;;;;;;5031808;28;20028;-71
2022/09/29 08:08:18;;;;;;;29.83;15.98;;;12.00;99.90;;;;;;5032775;28;20036;-71
2022/09/29 08:10:44;;;;;;;28.88;16.77;;;12.20;99.90;;;;;;5031870;28;20025;-72
2022/09/29 08:13:09;;;;;;;29.35;16.50;;;12.30;99.90;;;;;;5031606;28;20048;-71
2022/09/29 08:15:35;;;;;;;28.80;16.05;;;12.50;99.90;;;;;;5032288;28;20119;-72
2022/09/29 08:18:01;;;;;;;26.08;15.77;;;12.60;99.90;;;;;;5032629;28;20037;-72
2022/09/29 08:20:26;;;;;;;28.08;16.10;;;12.70;99.90;;;;;;5032563;28;20041;-73
2022/09/29 08:22:54;;;;;;;29.38;16.20;;;12.80;99.90;;;;;;5032402;28;20080;-71
2022/09/29 08:25:20;;;;;;;;;;;13.00;99.90;;;;;;5033716;28;20032;-71
2022/09/29 08:27:46;;;;;;;26.02;15.40;;;13.10;99.90;;;;;;5032868;28;19909;-73
2022/09/29 08:30:12;;;;;;;24.65;15.90;;;13.30;99.90;;;;;;5032577;28;20060;-73
2022/09/29 08:32:37;;;;;;;25.95;15.73;;;13.40;99.90;;;;;;5032586;28;20036;-73
2022/09/29 08:35:04;;;;;;;26.85;15.52;;;13.50;99.90;;;;;;5032598;28;20109;-73
2022/09/29 08:37:30;;;;;;;25.80;15.32;;;13.60;99.90;;;;;;5032588;28;20036;-73
2022/09/29 08:39:56;;;;;;;23.95;14.43;;;13.70;99.90;;;;;;5032387;28;20030;-72
2022/09/29 08:42:36;;;;;;;23.90;13.43;;;13.90;99.90;;;;;;5032115;28;20044;-73
2022/09/29 08:45:07;;;;;;;21.85;13.35;;;14.00;99.00;;;;;;5032228;28;20099;-74
2022/09/29 08:47:39;;;;;;;22.73;13.13;;;14.10;99.60;;;;;;5032230;28;20037;-73
2022/09/29 08:50:30;;;;;;;22.77;13.32;;;14.20;99.60;;;;;;5032143;28;20041;-74
2022/09/29 08:53:01;;;;;;;21.30;12.65;;;14.40;98.70;;;;;;5032352;28;20028;-74
2022/09/29 08:55:39;;;;;;;19.58;11.63;;;14.60;99.00;;;;;;5032540;28;20013;-75
2022/09/29 08:58:12;;;;;;;24.83;10.93;;;14.90;98.90;;;;;;5032036;28;20030;-74
2022/09/29 09:00:41;;;;;;;21.40;11.65;;;15.30;99.00;;;;;;5032082;28;20447;-74
2022/09/29 09:03:30;;;;;;;38.60;21.55;;;15.70;98.60;;;;;;5031979;28;20034;-71
2022/09/29 09:06:11;;;;;;;19.95;11.15;;;16.80;99.30;;;;;;5030924;28;20049;-74
2022/09/29 09:08:37;;;;;;;17.50;10.63;;;17.90;97.60;;;;;;5031426;28;20305;-72
2022/09/29 09:11:23;;;;;;;15.60;10.07;;;19.10;96.60;;;;;;5031268;28;20057;-72
2022/09/29 09:14:10;;;;;;;14.73;9.95;;;19.60;95.50;;;;;;5031227;28;20348;-72
2022/09/29 09:16:47;;;;;;;20.70;9.77;;;20.00;91.40;;;;;;5031952;28;20459;-72
2022/09/29 09:19:31;;;;;;;13.90;8.93;;;20.20;90.60;;;;;;5031546;28;20486;-72
2022/09/29 09:22:10;;;;;;;16.40;8.98;;;20.80;92.60;;;;;;5031412;28;20111;-72
2022/09/29 09:24:50;;;;;;;13.70;8.18;;;21.40;91.10;;;;;;5031311;28;20095;-72
2022/09/29 09:27:21;;;;;;;13.32;8.70;;;22.20;89.50;;;;;;5029239;28;20129;-72
2022/09/29 09:29:49;;;;;;;11.30;8.07;;;23.10;90.70;;;;;;5030060;28;20182;-72
2022/09/29 09:32:23;;;;;;;15.10;7.63;;;23.00;88.30;;;;;;5031550;28;20033;-73
2022/09/29 09:34:52;;;;;;;12.57;7.13;;;23.80;81.90;;;;;;5031806;28;20039;-73
2022/09/29 09:37:24;;;;;;;11.80;6.97;;;24.30;82.20;;;;;;5031543;28;20448;-73
2022/09/29 09:40:03;;;;;;;11.05;6.32;;;24.90;77.50;;;;;;5031089;28;20037;-74
2022/09/29 09:42:36;;;;;;;12.77;7.03;;;25.30;73.30;;;;;;5030836;28;20116;-72
2022/09/29 09:45:22;;;;;;;8.73;6.57;;;25.20;72.30;;;;;;5031100;28;20117;-73
2022/09/29 09:48:13;;;;;;;8.15;6.40;;;25.40;73.30;;;;;;5046413;28;20045;-73
2022/09/29 09:50:41;;;;;;;10.63;6.63;;;25.80;74.20;;;;;;5027349;28;20313;-73
2022/09/29 09:53:21;;;;;;;11.68;6.68;;;26.20;71.60;;;;;;5030943;28;20455;-74
2022/09/29 09:56:02;;;;;;;10.70;6.88;;;26.40;74.20;;;;;;5030802;28;20418;-72
2022/09/29 09:58:56;;;;;;;10.95;6.43;;;26.60;65.90;;;;;;5031292;28;20359;-72
2022/09/29 10:01:22;;;;;;;8.98;5.90;;;26.80;67.40;;;;;;5050575;28;20455;-73
2022/09/29 10:03:47;;;;;;;10.73;6.18;;;27.40;66.20;;;;;;5050542;28;20033;-75
2022/09/29 10:06:13;;;;;;;11.18;7.15;;;26.80;64.90;;;;;;5050584;28;20474;-73
2022/09/29 10:08:41;;;;;;;10.43;6.47;;;26.50;65.70;;;;;;5050743;28;20036;-74
2022/09/29 10:11:32;;;;;;;10.13;6.38;;;25.70;65.50;;;;;;5050509;28;20025;-74
2022/09/29 10:14:03;;;;;;;8.18;5.53;;;25.10;65.60;;;;;;5050496;28;20108;-73
2022/09/29 10:16:45;;;;;;;10.85;5.50;;;24.60;67.70;;;;;;5051233;28;20021;-73
2022/09/29 10:19:10;;;;;;;11.50;5.20;;;26.00;66.30;;;;;;5050628;28;20049;-75
2022/09/29 10:21:37;;;;;;;8.23;5.55;;;27.10;65.70;;;;;;5050371;28;20114;-74
2022/09/29 10:24:06;;;;;;;7.90;5.47;;;27.30;62.20;;;;;;5050470;28;20040;-76
2022/09/29 10:26:39;;;;;;;6.40;4.80;;;26.70;64.00;;;;;;5049348;28;20033;-75
2022/09/29 10:29:37;;;;;;;8.75;5.13;;;26.50;61.00;;;;;;5050744;28;20048;-75
2022/09/29 10:32:07;;;;;;;9.52;4.60;;;26.90;62.70;;;;;;5050630;28;20104;-74
2022/09/29 10:34:45;;;;;;;7.70;5.25;;;27.10;59.90;;;;;;5051504;28;20220;-75
2022/09/29 10:37:35;;;;;;;6.28;4.07;;;26.10;59.80;;;;;;5049223;28;20041;-74
2022/09/29 10:40:21;;;;;;;5.97;4.28;;;25.90;62.00;;;;;;5054434;28;20087;-74
2022/09/29 10:42:49;;;;;;;5.65;4.05;;;25.40;60.40;;;;;;5053990;28;20076;-74
2022/09/29 10:45:20;;;;;;;6.57;3.85;;;26.20;63.40;;;;;;5054429;28;20445;-72
2022/09/29 10:48:08;;;;;;;7.70;4.35;;;25.30;61.90;;;;;;5054458;28;20112;-75
2022/09/29 10:50:46;;;;;;;6.18;3.97;;;26.20;60.30;;;;;;5054589;28;20429;-74
2022/09/29 10:53:39;;;;;;;8.43;4.25;;;26.80;60.60;;;;;;5054117;28;20033;-75
2022/09/29 10:56:23;;;;;;;8.65;4.53;;;27.10;60.80;;;;;;5053723;28;20118;-74
2022/09/29 10:58:55;;;;;;;6.85;4.22;;;27.30;59.20;;;;;;5053973;28;20021;-75
2022/09/29 11:01:21;;;;;;;6.88;4.45;;;26.90;59.00;;;;;;5054472;28;20439;-74
2022/09/29 11:03:51;;;;;;;14.45;6.32;;;24.90;59.70;;;;;;5054115;28;20029;-74
2022/09/29 11:06:25;;;;;;;7.30;4.75;;;24.20;61.70;;;;;;5054101;28;20104;-72
2022/09/29 11:09:17;;;;;;;8.30;4.63;;;23.80;63.20;;;;;;5054093;28;20103;-73
2022/09/29 11:11:45;;;;;;;6.35;4.32;;;22.90;63.70;;;;;;5051383;28;20082;-75
2022/09/29 11:14:36;;;;;;;8.50;4.32;;;22.40;65.20;;;;;;5052431;28;20037;-71
2022/09/29 11:17:21;;;;;;;6.85;4.20;;;22.20;66.70;;;;;;5053699;28;20025;-71
2022/09/29 11:19:48;;;;;;;7.93;3.50;;;22.10;65.50;;;;;;5053654;28;20388;-71
2022/09/29 11:22:49;;;;;;;6.50;3.58;;;20.80;66.40;;;;;;5054045;28;20054;-75
2022/09/29 11:25:18;;;;;;;7.03;4.45;;;20.40;67.50;;;;;;5069328;28;20033;-72
2022/09/29 11:28:12;;;;;;;9.90;4.53;;;19.50;70.00;;;;;;5053545;28;20093;-74
2022/09/29 11:30:46;;;;;;;7.25;4.63;;;19.40;72.20;;;;;;5053413;28;20470;-72
2022/09/29 11:33:42;;;;;;;8.20;4.47;;;19.40;72.40;;;;;;5053515;28;20122;-73
2022/09/29 11:36:28;;;;;;;4.50;1.90;;;19.60;72.30;;;;;;5053161;28;20080;-73
2022/09/29 11:39:00;;;;;;;4.03;2.58;;;19.60;70.50;;;;;;5052962;28;20099;-73
2022/09/29 11:41:37;;;;;;;2.47;1.77;;;19.60;68.80;;;;;;5052272;28;20420;-72
2022/09/29 11:44:14;;;;;;;5.63;2.70;;;19.60;70.20;;;;;;5053349;28;20270;-72
2022/09/29 11:46:53;;;;;;;5.88;3.22;;;19.50;71.00;;;;;;5053672;28;20075;-73
2022/09/29 11:49:44;;;;;;;9.75;4.20;;;19.50;72.20;;;;;;5052771;28;20040;-72
2022/09/29 11:52:28;;;;;;;7.97;4.28;;;18.80;73.80;;;;;;5033431;28;20361;-74
2022/09/29 11:54:56;;;;;;;10.70;4.53;;;18.30;75.90;;;;;;5031946;28;20041;-73
2022/09/29 11:57:41;;;;;;;8.90;4.70;;;18.20;77.40;;;;;;5033351;28;20026;-72
2022/09/29 12:00:11;;;;;;;5.82;4.22;;;18.30;78.10;;;;;;5032896;28;20033;-73
2022/09/29 12:02:43;;;;;;;22.30;13.80;;;17.90;78.90;;;;;;5032987;28;20116;-74
2022/09/29 12:05:17;;;;;;;29.15;16.10;;;17.90;79.50;;;;;;5032896;28;20052;-73
2022/09/29 12:08:06;;;;;;;9.30;5.60;;;18.10;79.00;;;;;;5033440;28;20082;-73
2022/09/29 12:10:35;;;;;;;4.93;3.30;;;18.10;79.10;;;;;;5031880;28;20072;-72
2022/09/29 12:13:17;;;;;;;6.60;3.47;;;17.90;79.00;;;;;;5032935;28;20087;-72
2022/09/29 12:15:55;;;;;;;4.70;3.40;;;17.70;79.50;;;;;;5031392;28;20046;-72
2022/09/29 12:18:39;;;;;;;6.07;3.40;;;17.80;79.60;;;;;;5032865;28;20116;-72
2022/09/29 12:21:08;;;;;;;5.28;3.47;;;17.80;80.30;;;;;;5031534;28;20079;-73
2022/09/29 12:23:36;;;;;;;6.35;3.15;;;17.80;80.20;;;;;;5037937;28;20489;-71
2022/09/29 12:26:28;;;;;;;7.68;3.05;;;17.40;81.30;;;;;;5052349;28;20447;-74
2022/09/29 12:29:15;;;;;;;6.25;3.92;;;17.70;84.50;;;;;;5052031;28;20048;-74
2022/09/29 12:31:46;;;;;;;4.95;3.00;;;17.70;81.90;;;;;;5052781;28;20020;-74
2022/09/29 12:34:23;;;;;;;5.35;3.13;;;17.60;82.60;;;;;;5052627;28;20072;-75
2022/09/29 12:37:04;;;;;;;3.17;2.22;;;17.80;82.40;;;;;;5052185;28;20120;-74
2022/09/29 12:39:39;;;;;;;4.35;2.45;;;17.90;81.80;;;;;;5051142;28;20033;-75
2022/09/29 12:42:12;;;;;;;5.00;3.10;;;18.00;80.80;;;;;;5052172;28;20033;-74
2022/09/29 12:44:47;;;;;;;5.05;2.58;;;18.20;81.50;;;;;;5051985;28;20029;-74
2022/09/29 12:47:40;;;;;;;7.05;2.88;;;18.20;82.00;;;;;;5050983;28;20098;-73
2022/09/29 12:50:17;;;;;;;5.57;3.00;;;18.20;82.10;;;;;;5052077;28;20025;-74
2022/09/29 12:52:50;;;;;;;6.47;2.55;;;18.10;81.80;;;;;;5052653;28;20029;-73
2022/09/29 12:55:30;;;;;;;17.42;10.45;;;18.20;81.50;;;;;;5050744;28;20375;-76
2022/09/29 12:58:00;;;;;;;4.88;3.15;;;18.30;81.40;;;;;;5050755;28;20458;-74
2022/09/29 13:00:31;;;;;;;6.13;2.80;;;18.50;81.70;;;;;;5051687;28;20082;-74
2022/09/29 13:03:25;;;;;;;5.50;2.97;;;18.60;81.30;;;;;;5051811;28;20037;-74
2022/09/29 13:06:13;;;;;;;3.83;2.47;;;18.50;81.90;;;;;;5051944;28;20116;-73
2022/09/29 13:09:00;;;;;;;3.13;2.10;;;18.70;82.30;;;;;;5051889;28;20025;-73